sensor_id;sensor_type;location;lat;lon;timestamp;pressure;altitude;pressure_sealevel;temperature;humidity
75006;BME280;63553;51.814;4.600;2022-09-27T00:00:13;99917.38;;;10.92;79.60
75006;BME280;63553;51.814;4.600;2022-09-27T00:02:39;99919.78;;;10.81;81.14
75006;BME280;63553;51.814;4.600;2022-09-27T00:05:04;99924.34;;;11.22;79.94
75006;BME280;63553;51.814;4.600;2022-09-27T00:07:30;99925.59;;;10.88;80.54
75006;BME280;63553;51.814;4.600;2022-09-27T00:09:55;99919.56;;;10.74;81.66
75006;BME280;63553;51.814;4.600;2022-09-27T00:12:20;99916.69;;;11.07;80.63
75006;BME280;63553;51.814;4.600;2022-09-27T00:14:45;99916.44;;;10.88;81.35
75006;BME280;63553;51.814;4.600;2022-09-27T00:17:11;99918.63;;;10.82;80.56
75006;BME280;63553;51.814;4.600;2022-09-27T00:19:36;99916.94;;;10.33;82.70
75006;BME280;63553;51.814;4.600;2022-09-27T00:22:01;99920.81;;;10.20;83.54
75006;BME280;63553;51.814;4.600;2022-09-27T00:24:27;99929.44;;;10.39;83.21
75006;BME280;63553;51.814;4.600;2022-09-27T00:26:53;99917.44;;;10.14;84.02
75006;BME280;63553;51.814;4.600;2022-09-27T00:29:19;99923.13;;;10.18;84.35
75006;BME280;63553;51.814;4.600;2022-09-27T00:31:45;99917.56;;;9.97;85.06
75006;BME280;63553;51.814;4.600;2022-09-27T00:34:17;99923.72;;;10.02;84.79
75006;BME280;63553;51.814;4.600;2022-09-27T00:36:43;99924.41;;;9.99;85.27
75006;BME280;63553;51.814;4.600;2022-09-27T00:39:08;99925.00;;;10.05;85.04
75006;BME280;63553;51.814;4.600;2022-09-27T00:41:36;99922.31;;;9.96;84.90
75006;BME280;63553;51.814;4.600;2022-09-27T00:46:53;99937.28;;;9.63;86.33
75006;BME280;63553;51.814;4.600;2022-09-27T00:49:27;99924.97;;;9.52;87.04
75006;BME280;63553;51.814;4.600;2022-09-27T00:52:02;99941.28;;;9.53;87.07
75006;BME280;63553;51.814;4.600;2022-09-27T00:54:29;99947.56;;;9.62;87.37
75006;BME280;63553;51.814;4.600;2022-09-27T00:56:57;99960.06;;;10.63;86.10
75006;BME280;63553;51.814;4.600;2022-09-27T00:59:36;99942.53;;;10.38;85.03
75006;BME280;63553;51.814;4.600;2022-09-27T01:02:04;99938.22;;;10.74;85.43
75006;BME280;63553;51.814;4.600;2022-09-27T01:04:30;99931.38;;;10.83;82.02
75006;BME280;63553;51.814;4.600;2022-09-27T01:06:56;99937.31;;;10.37;83.00
75006;BME280;63553;51.814;4.600;2022-09-27T01:09:22;99927.50;;;10.19;83.60
75006;BME280;63553;51.814;4.600;2022-09-27T01:17:45;99952.47;;;10.07;84.49
75006;BME280;63553;51.814;4.600;2022-09-27T01:20:22;99952.66;;;10.67;84.82
75006;BME280;63553;51.814;4.600;2022-09-27T01:31:26;99960.00;;;12.64;72.37
75006;BME280;63553;51.814;4.600;2022-09-27T01:34:02;99950.66;;;12.72;75.53
75006;BME280;63553;51.814;4.600;2022-09-27T01:36:41;99960.75;;;12.76;79.07
75006;BME280;63553;51.814;4.600;2022-09-27T01:42:20;99951.72;;;12.67;75.78
75006;BME280;63553;51.814;4.600;2022-09-27T01:44:52;99939.88;;;12.70;73.19
75006;BME280;63553;51.814;4.600;2022-09-27T01:47:21;99946.69;;;13.04;72.62
75006;BME280;63553;51.814;4.600;2022-09-27T01:52:19;99950.38;;;11.78;75.76
75006;BME280;63553;51.814;4.600;2022-09-27T01:54:50;99951.41;;;11.74;75.58
75006;BME280;63553;51.814;4.600;2022-09-27T01:57:22;99950.28;;;11.26;77.95
75006;BME280;63553;51.814;4.600;2022-09-27T01:59:55;99961.28;;;11.47;75.73
75006;BME280;63553;51.814;4.600;2022-09-27T02:02:25;99954.44;;;12.79;79.96
75006;BME280;63553;51.814;4.600;2022-09-27T02:04:55;99926.72;;;12.87;75.31
75006;BME280;63553;51.814;4.600;2022-09-27T02:07:30;99923.50;;;12.25;70.41
75006;BME280;63553;51.814;4.600;2022-09-27T02:10:22;99937.63;;;11.53;72.14
75006;BME280;63553;51.814;4.600;2022-09-27T02:13:06;99940.06;;;10.94;73.23
75006;BME280;63553;51.814;4.600;2022-09-27T02:16:07;99941.41;;;10.19;76.86
75006;BME280;63553;51.814;4.600;2022-09-27T02:19:03;99932.75;;;9.99;79.09
75006;BME280;63553;51.814;4.600;2022-09-27T02:24:46;99943.94;;;9.70;81.11
75006;BME280;63553;51.814;4.600;2022-09-27T02:27:18;99942.22;;;9.57;82.18
75006;BME280;63553;51.814;4.600;2022-09-27T02:29:52;99961.72;;;9.69;82.40
75006;BME280;63553;51.814;4.600;2022-09-27T02:32:19;99952.41;;;10.60;83.46
75006;BME280;63553;51.814;4.600;2022-09-27T02:34:44;99953.81;;;10.66;77.64
75006;BME280;63553;51.814;4.600;2022-09-27T02:37:11;99946.09;;;11.20;80.46
75006;BME280;63553;51.814;4.600;2022-09-27T02:39:36;99936.84;;;11.16;78.92
75006;BME280;63553;51.814;4.600;2022-09-27T02:42:03;99935.88;;;11.60;79.70
75006;BME280;63553;51.814;4.600;2022-09-27T02:44:29;99935.91;;;10.88;77.76
75006;BME280;63553;51.814;4.600;2022-09-27T02:49:56;99964.75;;;11.80;78.58
75006;BME280;63553;51.814;4.600;2022-09-27T02:55:22;99972.47;;;12.54;76.44
75006;BME280;63553;51.814;4.600;2022-09-27T03:00:57;99969.50;;;11.80;76.43
75006;BME280;63553;51.814;4.600;2022-09-27T03:03:41;99966.63;;;11.52;76.94
75006;BME280;63553;51.814;4.600;2022-09-27T03:06:12;99976.84;;;11.36;81.27
75006;BME280;63553;51.814;4.600;2022-09-27T03:08:38;99975.63;;;11.85;76.46
75006;BME280;63553;51.814;4.600;2022-09-27T03:11:05;99977.91;;;11.19;77.36
75006;BME280;63553;51.814;4.600;2022-09-27T03:13:30;99978.75;;;10.75;77.99
75006;BME280;63553;51.814;4.600;2022-09-27T03:15:56;99975.44;;;11.30;77.33
75006;BME280;63553;51.814;4.600;2022-09-27T03:18:21;99968.81;;;10.86;79.24
75006;BME280;63553;51.814;4.600;2022-09-27T03:20:47;99961.19;;;10.50;80.17
75006;BME280;63553;51.814;4.600;2022-09-27T03:23:12;99953.81;;;10.21;82.61
75006;BME280;63553;51.814;4.600;2022-09-27T03:25:38;99962.75;;;10.27;81.41
75006;BME280;63553;51.814;4.600;2022-09-27T03:28:04;99959.38;;;10.00;83.15
75006;BME280;63553;51.814;4.600;2022-09-27T03:30:30;99946.03;;;9.94;83.34
75006;BME280;63553;51.814;4.600;2022-09-27T03:32:55;99952.34;;;9.82;84.10
75006;BME280;63553;51.814;4.600;2022-09-27T03:35:20;99950.41;;;9.95;83.78
75006;BME280;63553;51.814;4.600;2022-09-27T03:37:46;99942.22;;;9.98;83.75
75006;BME280;63553;51.814;4.600;2022-09-27T03:40:12;99949.28;;;10.17;83.07
75006;BME280;63553;51.814;4.600;2022-09-27T03:42:37;99956.03;;;9.86;84.17
75006;BME280;63553;51.814;4.600;2022-09-27T03:45:03;99955.78;;;10.21;82.46
75006;BME280;63553;51.814;4.600;2022-09-27T03:47:29;99953.88;;;9.92;83.42
75006;BME280;63553;51.814;4.600;2022-09-27T03:49:54;99954.75;;;9.84;83.59
75006;BME280;63553;51.814;4.600;2022-09-27T03:52:20;99973.84;;;10.59;84.49
75006;BME280;63553;51.814;4.600;2022-09-27T03:54:45;99969.31;;;10.55;81.43
75006;BME280;63553;51.814;4.600;2022-09-27T03:57:10;99973.78;;;10.80;78.54
75006;BME280;63553;51.814;4.600;2022-09-27T03:59:36;99978.69;;;11.07;81.89
75006;BME280;63553;51.814;4.600;2022-09-27T04:02:01;99974.25;;;11.67;78.57
75006;BME280;63553;51.814;4.600;2022-09-27T04:04:27;99964.44;;;12.96;78.12
75006;BME280;63553;51.814;4.600;2022-09-27T04:06:52;99971.97;;;11.57;77.30
75006;BME280;63553;51.814;4.600;2022-09-27T04:09:17;99972.31;;;10.95;76.27
75006;BME280;63553;51.814;4.600;2022-09-27T04:11:43;99969.97;;;10.40;80.15
75006;BME280;63553;51.814;4.600;2022-09-27T04:14:08;99967.75;;;10.33;84.03
75006;BME280;63553;51.814;4.600;2022-09-27T04:16:37;99970.25;;;10.05;82.10
75006;BME280;63553;51.814;4.600;2022-09-27T04:19:04;99976.06;;;9.92;82.68
75006;BME280;63553;51.814;4.600;2022-09-27T04:21:29;99982.47;;;10.13;84.52
75006;BME280;63553;51.814;4.600;2022-09-27T04:23:55;99981.84;;;10.28;81.79
75006;BME280;63553;51.814;4.600;2022-09-27T04:26:20;99980.28;;;9.98;83.86
75006;BME280;63553;51.814;4.600;2022-09-27T04:28:46;99970.41;;;10.87;83.39
75006;BME280;63553;51.814;4.600;2022-09-27T04:31:11;99957.97;;;10.15;81.16
75006;BME280;63553;51.814;4.600;2022-09-27T04:33:37;99957.06;;;9.82;82.17
75006;BME280;63553;51.814;4.600;2022-09-27T04:36:02;99969.53;;;9.76;83.75
75006;BME280;63553;51.814;4.600;2022-09-27T04:38:46;99973.03;;;9.85;84.51
75006;BME280;63553;51.814;4.600;2022-09-27T04:41:12;99971.69;;;9.91;83.50
75006;BME280;63553;51.814;4.600;2022-09-27T04:43:39;99986.25;;;9.67;84.35
75006;BME280;63553;51.814;4.600;2022-09-27T04:46:04;99982.34;;;9.60;84.87
75006;BME280;63553;51.814;4.600;2022-09-27T04:48:30;99984.63;;;9.87;84.55
75006;BME280;63553;51.814;4.600;2022-09-27T04:50:56;99989.41;;;9.78;84.71
75006;BME280;63553;51.814;4.600;2022-09-27T04:53:22;99988.00;;;9.72;85.38
75006;BME280;63553;51.814;4.600;2022-09-27T04:55:48;99991.53;;;10.22;82.93
75006;BME280;63553;51.814;4.600;2022-09-27T04:58:14;99966.75;;;9.76;84.23
75006;BME280;63553;51.814;4.600;2022-09-27T05:00:39;99969.59;;;9.67;85.14
75006;BME280;63553;51.814;4.600;2022-09-27T05:03:06;99972.69;;;9.66;84.63
75006;BME280;63553;51.814;4.600;2022-09-27T05:05:32;99998.50;;;10.07;84.92
75006;BME280;63553;51.814;4.600;2022-09-27T05:07:57;99999.53;;;10.89;83.67
75006;BME280;63553;51.814;4.600;2022-09-27T05:10:22;100016.38;;;11.41;86.33
75006;BME280;63553;51.814;4.600;2022-09-27T05:12:48;100008.91;;;10.52;80.24
75006;BME280;63553;51.814;4.600;2022-09-27T05:15:13;100007.53;;;10.25;81.48
75006;BME280;63553;51.814;4.600;2022-09-27T05:17:38;100007.91;;;10.56;80.21
75006;BME280;63553;51.814;4.600;2022-09-27T05:20:04;99991.91;;;10.21;81.49
75006;BME280;63553;51.814;4.600;2022-09-27T05:22:29;99989.13;;;10.53;80.02
75006;BME280;63553;51.814;4.600;2022-09-27T05:24:55;99983.72;;;9.95;82.62
75006;BME280;63553;51.814;4.600;2022-09-27T05:27:20;99984.69;;;9.78;83.42
75006;BME280;63553;51.814;4.600;2022-09-27T05:29:46;99981.84;;;9.87;83.25
75006;BME280;63553;51.814;4.600;2022-09-27T05:32:12;99971.34;;;9.72;83.64
75006;BME280;63553;51.814;4.600;2022-09-27T05:34:37;99971.28;;;9.80;84.59
75006;BME280;63553;51.814;4.600;2022-09-27T05:37:02;99973.44;;;9.75;84.50
75006;BME280;63553;51.814;4.600;2022-09-27T05:39:28;99966.81;;;9.67;85.08
75006;BME280;63553;51.814;4.600;2022-09-27T05:41:53;99950.34;;;9.62;84.92
75006;BME280;63553;51.814;4.600;2022-09-27T05:44:20;99956.00;;;9.45;86.20
75006;BME280;63553;51.814;4.600;2022-09-27T05:46:45;99949.25;;;9.55;85.84
75006;BME280;63553;51.814;4.600;2022-09-27T05:49:11;99944.06;;;9.53;85.39
75006;BME280;63553;51.814;4.600;2022-09-27T05:51:36;99948.97;;;9.47;85.45
75006;BME280;63553;51.814;4.600;2022-09-27T05:54:01;99953.28;;;9.36;86.07
75006;BME280;63553;51.814;4.600;2022-09-27T05:56:27;99960.34;;;9.34;86.14
75006;BME280;63553;51.814;4.600;2022-09-27T05:58:52;99962.59;;;9.61;84.95
75006;BME280;63553;51.814;4.600;2022-09-27T06:01:18;99964.59;;;9.31;85.97
75006;BME280;63553;51.814;4.600;2022-09-27T06:03:43;99965.31;;;9.49;86.10
75006;BME280;63553;51.814;4.600;2022-09-27T06:06:10;99970.84;;;9.49;85.76
75006;BME280;63553;51.814;4.600;2022-09-27T06:08:37;99984.38;;;9.80;84.95
75006;BME280;63553;51.814;4.600;2022-09-27T06:11:05;99996.91;;;10.07;84.31
75006;BME280;63553;51.814;4.600;2022-09-27T06:13:31;99985.56;;;9.70;85.03
75006;BME280;63553;51.814;4.600;2022-09-27T06:16:06;99979.53;;;9.68;85.30
75006;BME280;63553;51.814;4.600;2022-09-27T06:18:32;99979.03;;;9.45;86.39
75006;BME280;63553;51.814;4.600;2022-09-27T06:20:59;99971.94;;;9.57;85.62
75006;BME280;63553;51.814;4.600;2022-09-27T06:23:25;99976.53;;;9.53;86.42
75006;BME280;63553;51.814;4.600;2022-09-27T06:25:51;99976.88;;;9.51;86.04
75006;BME280;63553;51.814;4.600;2022-09-27T06:28:17;99987.19;;;9.42;86.49
75006;BME280;63553;51.814;4.600;2022-09-27T06:30:44;99988.84;;;9.43;86.50
75006;BME280;63553;51.814;4.600;2022-09-27T06:33:18;99985.13;;;9.60;85.55
75006;BME280;63553;51.814;4.600;2022-09-27T06:35:44;99991.09;;;9.49;85.98
75006;BME280;63553;51.814;4.600;2022-09-27T06:38:12;99987.91;;;9.60;85.97
75006;BME280;63553;51.814;4.600;2022-09-27T06:40:38;99978.28;;;9.57;86.49
75006;BME280;63553;51.814;4.600;2022-09-27T06:43:05;99987.91;;;9.60;86.35
75006;BME280;63553;51.814;4.600;2022-09-27T06:45:32;99988.50;;;9.74;85.58
75006;BME280;63553;51.814;4.600;2022-09-27T06:47:59;99990.59;;;9.77;86.16
75006;BME280;63553;51.814;4.600;2022-09-27T06:50:27;99995.50;;;9.71;86.48
75006;BME280;63553;51.814;4.600;2022-09-27T06:52:54;99992.72;;;9.71;86.37
75006;BME280;63553;51.814;4.600;2022-09-27T06:55:19;99982.25;;;9.77;85.47
75006;BME280;63553;51.814;4.600;2022-09-27T06:57:44;99990.31;;;9.90;85.60
75006;BME280;63553;51.814;4.600;2022-09-27T07:00:28;99992.47;;;10.05;85.50
75006;BME280;63553;51.814;4.600;2022-09-27T07:02:56;99993.19;;;10.23;84.76
75006;BME280;63553;51.814;4.600;2022-09-27T07:05:26;100002.22;;;10.12;84.69
75006;BME280;63553;51.814;4.600;2022-09-27T07:07:52;100001.06;;;10.13;84.81
75006;BME280;63553;51.814;4.600;2022-09-27T07:10:20;99999.78;;;10.10;84.68
75006;BME280;63553;51.814;4.600;2022-09-27T07:12:46;100000.59;;;10.11;84.90
75006;BME280;63553;51.814;4.600;2022-09-27T07:15:13;100009.22;;;9.97;85.47
75006;BME280;63553;51.814;4.600;2022-09-27T07:17:39;99998.81;;;10.15;85.20
75006;BME280;63553;51.814;4.600;2022-09-27T07:20:05;99995.00;;;10.19;84.75
75006;BME280;63553;51.814;4.600;2022-09-27T07:22:31;99991.75;;;10.17;84.87
75006;BME280;63553;51.814;4.600;2022-09-27T07:24:56;99988.91;;;10.26;84.64
75006;BME280;63553;51.814;4.600;2022-09-27T07:27:21;99982.53;;;10.25;84.55
75006;BME280;63553;51.814;4.600;2022-09-27T07:29:48;99983.41;;;10.38;83.75
75006;BME280;63553;51.814;4.600;2022-09-27T07:32:14;99984.44;;;10.33;85.58
75006;BME280;63553;51.814;4.600;2022-09-27T07:34:39;99976.72;;;10.18;85.21
75006;BME280;63553;51.814;4.600;2022-09-27T07:37:04;99990.22;;;10.40;85.01
75006;BME280;63553;51.814;4.600;2022-09-27T07:39:30;99985.50;;;10.41;85.56
75006;BME280;63553;51.814;4.600;2022-09-27T07:41:56;99992.53;;;10.38;85.47
75006;BME280;63553;51.814;4.600;2022-09-27T07:44:22;99990.69;;;10.42;85.20
75006;BME280;63553;51.814;4.600;2022-09-27T07:46:47;99986.31;;;10.86;84.46
75006;BME280;63553;51.814;4.600;2022-09-27T07:49:12;100001.94;;;10.79;84.43
75006;BME280;63553;51.814;4.600;2022-09-27T07:51:38;100006.31;;;10.68;84.43
75006;BME280;63553;51.814;4.600;2022-09-27T07:54:03;100007.81;;;10.65;85.16
75006;BME280;63553;51.814;4.600;2022-09-27T07:56:28;100011.59;;;10.60;85.38
75006;BME280;63553;51.814;4.600;2022-09-27T07:58:54;100012.69;;;10.68;85.29
75006;BME280;63553;51.814;4.600;2022-09-27T08:01:20;100016.75;;;10.71;85.69
75006;BME280;63553;51.814;4.600;2022-09-27T08:03:45;100032.22;;;10.92;85.93
75006;BME280;63553;51.814;4.600;2022-09-27T08:06:11;100045.34;;;11.04;84.03
75006;BME280;63553;51.814;4.600;2022-09-27T08:08:37;100037.00;;;11.04;82.10
75006;BME280;63553;51.814;4.600;2022-09-27T08:11:14;100034.25;;;10.71;84.96
75006;BME280;63553;51.814;4.600;2022-09-27T08:13:44;100035.03;;;11.04;84.05
75006;BME280;63553;51.814;4.600;2022-09-27T08:16:09;100037.69;;;11.01;84.11
75006;BME280;63553;51.814;4.600;2022-09-27T08:18:35;100054.00;;;11.72;80.93
75006;BME280;63553;51.814;4.600;2022-09-27T08:21:01;100068.81;;;11.51;79.39
75006;BME280;63553;51.814;4.600;2022-09-27T08:23:26;100073.28;;;11.20;81.21
75006;BME280;63553;51.814;4.600;2022-09-27T08:25:52;100070.16;;;10.76;83.35
75006;BME280;63553;51.814;4.600;2022-09-27T08:28:18;100072.66;;;10.57;84.09
75006;BME280;63553;51.814;4.600;2022-09-27T08:30:43;100061.53;;;10.36;85.09
75006;BME280;63553;51.814;4.600;2022-09-27T08:33:09;100063.16;;;10.37;85.43
75006;BME280;63553;51.814;4.600;2022-09-27T08:35:34;100069.31;;;10.22;86.00
75006;BME280;63553;51.814;4.600;2022-09-27T08:38:00;100054.63;;;10.22;86.30
75006;BME280;63553;51.814;4.600;2022-09-27T08:40:37;100057.28;;;10.10;86.23
75006;BME280;63553;51.814;4.600;2022-09-27T08:46:16;100070.50;;;10.13;85.55
75006;BME280;63553;51.814;4.600;2022-09-27T08:48:43;100069.63;;;10.00;85.68
75006;BME280;63553;51.814;4.600;2022-09-27T08:51:13;100075.75;;;10.14;85.71
75006;BME280;63553;51.814;4.600;2022-09-27T08:53:49;100071.75;;;10.03;84.96
75006;BME280;63553;51.814;4.600;2022-09-27T08:56:17;100077.72;;;9.84;86.01
75006;BME280;63553;51.814;4.600;2022-09-27T08:58:59;100077.16;;;9.70;85.99
75006;BME280;63553;51.814;4.600;2022-09-27T09:01:26;100083.53;;;9.71;85.63
75006;BME280;63553;51.814;4.600;2022-09-27T09:03:58;100092.13;;;9.78;86.10
75006;BME280;63553;51.814;4.600;2022-09-27T09:06:26;100101.22;;;9.87;86.44
75006;BME280;63553;51.814;4.600;2022-09-27T09:11:48;100089.59;;;9.93;85.23
75006;BME280;63553;51.814;4.600;2022-09-27T09:17:21;100084.03;;;9.93;85.42
75006;BME280;63553;51.814;4.600;2022-09-27T09:23:17;100083.31;;;10.05;85.04
75006;BME280;63553;51.814;4.600;2022-09-27T09:34:23;100078.53;;;10.14;84.71
75006;BME280;63553;51.814;4.600;2022-09-27T09:39:32;100086.53;;;10.16;85.48
75006;BME280;63553;51.814;4.600;2022-09-27T09:42:25;100080.66;;;10.17;84.23
75006;BME280;63553;51.814;4.600;2022-09-27T09:47:35;100103.28;;;10.28;82.88
75006;BME280;63553;51.814;4.600;2022-09-27T09:52:45;100103.34;;;10.19;82.21
75006;BME280;63553;51.814;4.600;2022-09-27T09:55:21;100109.28;;;9.80;83.54
75006;BME280;63553;51.814;4.600;2022-09-27T10:00:35;100110.16;;;9.63;85.21
75006;BME280;63553;51.814;4.600;2022-09-27T10:03:02;100104.31;;;9.56;85.58
75006;BME280;63553;51.814;4.600;2022-09-27T10:05:28;100103.34;;;9.61;85.83
75006;BME280;63553;51.814;4.600;2022-09-27T10:07:59;100104.78;;;9.67;86.23
75006;BME280;63553;51.814;4.600;2022-09-27T10:10:25;100102.09;;;9.79;86.06
75006;BME280;63553;51.814;4.600;2022-09-27T10:12:51;100107.81;;;9.82;86.10
75006;BME280;63553;51.814;4.600;2022-09-27T10:15:20;100106.56;;;9.92;85.84
75006;BME280;63553;51.814;4.600;2022-09-27T10:17:48;100113.81;;;9.84;85.36
75006;BME280;63553;51.814;4.600;2022-09-27T10:20:35;100098.19;;;9.71;83.27
75006;BME280;63553;51.814;4.600;2022-09-27T10:23:10;100101.81;;;9.72;84.88
75006;BME280;63553;51.814;4.600;2022-09-27T10:31:01;100093.19;;;9.65;85.06
75006;BME280;63553;51.814;4.600;2022-09-27T10:33:27;100076.84;;;9.34;85.91
75006;BME280;63553;51.814;4.600;2022-09-27T10:35:54;100071.28;;;9.34;86.40
75006;BME280;63553;51.814;4.600;2022-09-27T10:38:32;100069.09;;;9.48;86.05
75006;BME280;63553;51.814;4.600;2022-09-27T10:41:24;100076.34;;;9.40;86.38
75006;BME280;63553;51.814;4.600;2022-09-27T10:43:50;100076.44;;;9.53;87.48
75006;BME280;63553;51.814;4.600;2022-09-27T10:46:26;100072.66;;;9.57;86.37
75006;BME280;63553;51.814;4.600;2022-09-27T10:51:34;100093.66;;;9.96;86.16
75006;BME280;63553;51.814;4.600;2022-09-27T10:54:00;100088.06;;;9.75;86.32
75006;BME280;63553;51.814;4.600;2022-09-27T10:56:33;100069.06;;;9.86;85.10
75006;BME280;63553;51.814;4.600;2022-09-27T10:59:00;100079.63;;;9.92;84.25
75006;BME280;63553;51.814;4.600;2022-09-27T11:01:38;100083.59;;;9.83;84.85
75006;BME280;63553;51.814;4.600;2022-09-27T11:04:05;100088.75;;;9.72;86.02
75006;BME280;63553;51.814;4.600;2022-09-27T11:06:31;100094.25;;;9.81;85.83
75006;BME280;63553;51.814;4.600;2022-09-27T11:09:21;100091.88;;;9.71;86.94
75006;BME280;63553;51.814;4.600;2022-09-27T11:11:52;100077.13;;;9.79;85.88
75006;BME280;63553;51.814;4.600;2022-09-27T11:14:29;100078.13;;;9.95;86.96
75006;BME280;63553;51.814;4.600;2022-09-27T11:19:51;100082.75;;;9.91;86.04
75006;BME280;63553;51.814;4.600;2022-09-27T11:36:12;100047.22;;;11.24;79.22
75006;BME280;63553;51.814;4.600;2022-09-27T11:41:54;100047.59;;;11.71;79.75
75006;BME280;63553;51.814;4.600;2022-09-27T12:01:00;100029.81;;;12.00;77.03
75006;BME280;63553;51.814;4.600;2022-09-27T12:06:11;100027.41;;;11.74;77.65
75006;BME280;63553;51.814;4.600;2022-09-27T12:11:48;100013.47;;;12.38;76.49
75006;BME280;63553;51.814;4.600;2022-09-27T12:14:39;100013.88;;;12.12;76.15
75006;BME280;63553;51.814;4.600;2022-09-27T12:17:12;100010.50;;;12.19;76.30
75006;BME280;63553;51.814;4.600;2022-09-27T12:19:44;100008.78;;;12.42;76.33
75006;BME280;63553;51.814;4.600;2022-09-27T12:22:17;99999.97;;;12.40;76.90
75006;BME280;63553;51.814;4.600;2022-09-27T12:24:44;100003.09;;;12.66;75.65
75006;BME280;63553;51.814;4.600;2022-09-27T12:27:19;100000.94;;;12.32;75.33
75006;BME280;63553;51.814;4.600;2022-09-27T12:29:47;99988.78;;;12.68;74.81
75006;BME280;63553;51.814;4.600;2022-09-27T12:32:25;99989.22;;;13.29;75.98
75006;BME280;63553;51.814;4.600;2022-09-27T12:40:29;99982.13;;;15.20;69.83
75006;BME280;63553;51.814;4.600;2022-09-27T12:43:24;99977.06;;;15.78;67.84
75006;BME280;63553;51.814;4.600;2022-09-27T12:51:39;99967.50;;;16.75;62.47
75006;BME280;63553;51.814;4.600;2022-09-27T12:56:57;99971.63;;;16.85;59.57
75006;BME280;63553;51.814;4.600;2022-09-27T13:04:50;99970.38;;;16.49;63.39
75006;BME280;63553;51.814;4.600;2022-09-27T13:12:55;100000.63;;;16.59;61.04
75006;BME280;63553;51.814;4.600;2022-09-27T13:15:27;99988.53;;;15.20;59.08
75006;BME280;63553;51.814;4.600;2022-09-27T13:17:56;99982.41;;;12.83;66.08
75006;BME280;63553;51.814;4.600;2022-09-27T13:22:52;99973.91;;;12.20;68.60
75006;BME280;63553;51.814;4.600;2022-09-27T13:34:37;99972.81;;;12.37;71.56
75006;BME280;63553;51.814;4.600;2022-09-27T13:39:47;99964.56;;;12.56;72.24
75006;BME280;63553;51.814;4.600;2022-09-27T13:42:36;99959.56;;;12.77;72.36
75006;BME280;63553;51.814;4.600;2022-09-27T13:47:46;99962.94;;;13.14;67.65
75006;BME280;63553;51.814;4.600;2022-09-27T13:50:34;99961.91;;;13.88;68.43
75006;BME280;63553;51.814;4.600;2022-09-27T13:53:19;99949.56;;;13.55;66.58
75006;BME280;63553;51.814;4.600;2022-09-27T13:55:49;99939.09;;;14.86;68.17
75006;BME280;63553;51.814;4.600;2022-09-27T14:00:47;99937.31;;;14.97;66.71
75006;BME280;63553;51.814;4.600;2022-09-27T14:03:19;99929.59;;;15.13;65.56
75006;BME280;63553;51.814;4.600;2022-09-27T14:05:52;99942.19;;;13.47;66.35
75006;BME280;63553;51.814;4.600;2022-09-27T14:08:28;99923.22;;;13.71;65.02
75006;BME280;63553;51.814;4.600;2022-09-27T14:10:55;99928.28;;;13.15;68.81
75006;BME280;63553;51.814;4.600;2022-09-27T14:13:23;99920.25;;;13.14;69.74
75006;BME280;63553;51.814;4.600;2022-09-27T14:15:51;99920.88;;;13.07;70.09
75006;BME280;63553;51.814;4.600;2022-09-27T14:18:18;99912.44;;;13.54;68.08
75006;BME280;63553;51.814;4.600;2022-09-27T14:20:45;99921.38;;;13.79;67.74
75006;BME280;63553;51.814;4.600;2022-09-27T14:23:19;99918.53;;;14.33;70.79
75006;BME280;63553;51.814;4.600;2022-09-27T14:25:46;99924.16;;;13.60;67.46
75006;BME280;63553;51.814;4.600;2022-09-27T14:28:28;99940.94;;;13.28;68.35
75006;BME280;63553;51.814;4.600;2022-09-27T14:31:26;99949.56;;;13.89;71.57
75006;BME280;63553;51.814;4.600;2022-09-27T14:34:04;99962.47;;;13.78;67.20
75006;BME280;63553;51.814;4.600;2022-09-27T14:36:32;99966.06;;;13.44;68.44
75006;BME280;63553;51.814;4.600;2022-09-27T14:39:23;99974.16;;;14.19;68.41
75006;BME280;63553;51.814;4.600;2022-09-27T14:41:50;99975.72;;;14.96;69.96
75006;BME280;63553;51.814;4.600;2022-09-27T14:44:19;99955.91;;;14.63;63.83
75006;BME280;63553;51.814;4.600;2022-09-27T14:46:46;99954.16;;;12.69;71.44
75006;BME280;63553;51.814;4.600;2022-09-27T14:49:20;99941.78;;;11.59;73.52
75006;BME280;63553;51.814;4.600;2022-09-27T14:51:54;99923.97;;;10.99;76.88
75006;BME280;63553;51.814;4.600;2022-09-27T14:54:28;99929.84;;;10.62;78.07
75006;BME280;63553;51.814;4.600;2022-09-27T14:56:55;99924.00;;;10.42;79.52
75006;BME280;63553;51.814;4.600;2022-09-27T14:59:33;99933.22;;;10.67;78.98
75006;BME280;63553;51.814;4.600;2022-09-27T15:02:03;99941.44;;;10.76;79.10
75006;BME280;63553;51.814;4.600;2022-09-27T15:04:34;99928.22;;;10.73;79.90
75006;BME280;63553;51.814;4.600;2022-09-27T15:07:01;99913.41;;;10.56;80.14
75006;BME280;63553;51.814;4.600;2022-09-27T15:09:27;99917.63;;;10.30;79.91
75006;BME280;63553;51.814;4.600;2022-09-27T15:11:56;99929.72;;;10.58;79.04
75006;BME280;63553;51.814;4.600;2022-09-27T15:14:25;99936.91;;;10.59;79.22
75006;BME280;63553;51.814;4.600;2022-09-27T15:16:53;99936.47;;;10.36;80.09
75006;BME280;63553;51.814;4.600;2022-09-27T15:19:23;99937.13;;;10.66;80.17
75006;BME280;63553;51.814;4.600;2022-09-27T15:21:50;99935.44;;;10.74;79.86
75006;BME280;63553;51.814;4.600;2022-09-27T15:27:03;99914.59;;;10.35;80.20
75006;BME280;63553;51.814;4.600;2022-09-27T15:29:29;99909.19;;;10.38;80.91
75006;BME280;63553;51.814;4.600;2022-09-27T15:32:06;99919.13;;;10.27;80.33
75006;BME280;63553;51.814;4.600;2022-09-27T15:34:33;99916.28;;;10.15;80.63
75006;BME280;63553;51.814;4.600;2022-09-27T15:37:00;99923.59;;;10.20;82.32
75006;BME280;63553;51.814;4.600;2022-09-27T15:44:43;99908.09;;;10.31;81.31
75006;BME280;63553;51.814;4.600;2022-09-27T15:50:42;99889.34;;;10.28;81.26
75006;BME280;63553;51.814;4.600;2022-09-27T15:52:48;99890.63;;;10.18;80.93
75006;BME280;63553;51.814;4.600;2022-09-27T15:55:18;99881.28;;;10.35;81.61
75006;BME280;63553;51.814;4.600;2022-09-27T15:57:47;99883.84;;;10.52;80.37
75006;BME280;63553;51.814;4.600;2022-09-27T16:00:17;99882.22;;;10.39;81.40
75006;BME280;63553;51.814;4.600;2022-09-27T16:02:43;99883.03;;;10.51;80.99